sensor_id;sensor_type;location;lat;lon;timestamp;temperature;humidity
12971;DHT22;6550;48.650;8.774;2022-11-20T00:01:23;6.80;99.90
12971;DHT22;6550;48.650;8.774;2022-11-20T00:03:54;6.70;99.90
12971;DHT22;6550;48.650;8.774;2022-11-20T00:06:24;6.70;99.90
12971;DHT22;6550;48.650;8.774;2022-11-20T00:08:55;6.60;99.90
12971;DHT22;6550;48.650;8.774;2022-11-20T00:11:28;6.60;99.90
12971;DHT22;6550;48.650;8.774;2022-11-20T00:13:58;6.60;99.90
12971;DHT22;6550;48.650;8.774;2022-11-20T00:16:26;6.50;99.90
12971;DHT22;6550;48.650;8.774;2022-11-20T00:18:54;6.40;99.90
12971;DHT22;6550;48.650;8.774;2022-11-20T00:21:23;6.40;99.90
12971;DHT22;6550;48.650;8.774;2022-11-20T00:23:53;6.40;99.90
12971;DHT22;6550;48.650;8.774;2022-11-20T00:26:24;6.50;99.90
12971;DHT22;6550;48.650;8.774;2022-11-20T00:28:54;6.50;99.90
12971;DHT22;6550;48.650;8.774;2022-11-20T00:31:21;6.50;99.90
12971;DHT22;6550;48.650;8.774;2022-11-20T00:33:51;6.50;99.90
12971;DHT22;6550;48.650;8.774;2022-11-20T00:36:20;6.50;99.90
12971;DHT22;6550;48.650;8.774;2022-11-20T00:38:51;6.50;99.90
12971;DHT22;6550;48.650;8.774;2022-11-20T00:41:21;6.40;99.90
12971;DHT22;6550;48.650;8.774;2022-11-20T00:43:55;6.40;99.90
12971;DHT22;6550;48.650;8.774;2022-11-20T00:46:27;6.30;99.90
12971;DHT22;6550;48.650;8.774;2022-11-20T00:48:54;6.30;99.90
12971;DHT22;6550;48.650;8.774;2022-11-20T00:51:24;6.20;99.90
12971;DHT22;6550;48.650;8.774;2022-11-20T00:53:51;6.20;99.90
12971;DHT22;6550;48.650;8.774;2022-11-20T00:56:19;6.20;99.90
12971;DHT22;6550;48.650;8.774;2022-11-20T00:58:48;6.20;99.90
12971;DHT22;6550;48.650;8.774;2022-11-20T01:01:21;6.20;99.90
12971;DHT22;6550;48.650;8.774;2022-11-20T01:03:52;6.20;99.90
12971;DHT22;6550;48.650;8.774;2022-11-20T01:06:23;6.10;99.90
12971;DHT22;6550;48.650;8.774;2022-11-20T01:08:52;6.20;99.90
12971;DHT22;6550;48.650;8.774;2022-11-20T01:11:33;6.30;99.90
12971;DHT22;6550;48.650;8.774;2022-11-20T01:14:03;6.20;99.90
12971;DHT22;6550;48.650;8.774;2022-11-20T01:16:38;6.20;99.90
12971;DHT22;6550;48.650;8.774;2022-11-20T01:19:09;6.20;99.90
12971;DHT22;6550;48.650;8.774;2022-11-20T01:21:44;6.10;99.90
12971;DHT22;6550;48.650;8.774;2022-11-20T01:24:13;6.00;99.90
12971;DHT22;6550;48.650;8.774;2022-11-20T01:26:42;6.00;99.90
12971;DHT22;6550;48.650;8.774;2022-11-20T01:29:14;5.90;99.90
12971;DHT22;6550;48.650;8.774;2022-11-20T01:31:42;5.90;99.90
12971;DHT22;6550;48.650;8.774;2022-11-20T01:34:15;5.80;99.90
12971;DHT22;6550;48.650;8.774;2022-11-20T01:36:42;5.80;99.90
12971;DHT22;6550;48.650;8.774;2022-11-20T01:39:15;5.80;99.90
12971;DHT22;6550;48.650;8.774;2022-11-20T01:41:48;5.80;99.90
12971;DHT22;6550;48.650;8.774;2022-11-20T01:47:09;5.90;99.90
12971;DHT22;6550;48.650;8.774;2022-11-20T01:49:48;5.90;99.90
12971;DHT22;6550;48.650;8.774;2022-11-20T01:52:25;5.90;99.90
12971;DHT22;6550;48.650;8.774;2022-11-20T01:54:56;5.90;99.90
12971;DHT22;6550;48.650;8.774;2022-11-20T01:57:26;6.00;99.90
12971;DHT22;6550;48.650;8.774;2022-11-20T02:00:02;5.90;99.90
12971;DHT22;6550;48.650;8.774;2022-11-20T02:02:32;5.80;99.90
12971;DHT22;6550;48.650;8.774;2022-11-20T02:05:04;5.70;99.90
12971;DHT22;6550;48.650;8.774;2022-11-20T02:07:38;5.70;99.90
12971;DHT22;6550;48.650;8.774;2022-11-20T02:10:08;5.60;99.90
12971;DHT22;6550;48.650;8.774;2022-11-20T02:12:39;5.60;99.90
12971;DHT22;6550;48.650;8.774;2022-11-20T02:15:25;5.60;99.90
12971;DHT22;6550;48.650;8.774;2022-11-20T02:17:56;5.60;99.90
12971;DHT22;6550;48.650;8.774;2022-11-20T02:20:25;5.60;99.90
12971;DHT22;6550;48.650;8.774;2022-11-20T02:22:59;5.60;99.90
12971;DHT22;6550;48.650;8.774;2022-11-20T02:25:27;5.60;99.90
12971;DHT22;6550;48.650;8.774;2022-11-20T02:27:58;5.60;99.90
12971;DHT22;6550;48.650;8.774;2022-11-20T02:30:26;5.70;99.90
12971;DHT22;6550;48.650;8.774;2022-11-20T02:32:58;5.70;99.90
12971;DHT22;6550;48.650;8.774;2022-11-20T02:37:54;5.70;99.90
12971;DHT22;6550;48.650;8.774;2022-11-20T02:40:22;5.70;99.90
12971;DHT22;6550;48.650;8.774;2022-11-20T02:42:58;5.70;99.90
12971;DHT22;6550;48.650;8.774;2022-11-20T02:45:24;5.60;99.90
12971;DHT22;6550;48.650;8.774;2022-11-20T02:47:51;5.60;99.90
12971;DHT22;6550;48.650;8.774;2022-11-20T02:50:18;5.60;99.90
12971;DHT22;6550;48.650;8.774;2022-11-20T02:52:46;5.60;99.90
12971;DHT22;6550;48.650;8.774;2022-11-20T02:55:12;5.60;99.90
12971;DHT22;6550;48.650;8.774;2022-11-20T02:57:41;5.50;99.90
12971;DHT22;6550;48.650;8.774;2022-11-20T03:00:09;5.60;99.90
12971;DHT22;6550;48.650;8.774;2022-11-20T03:02:38;5.60;99.90
12971;DHT22;6550;48.650;8.774;2022-11-20T03:05:07;5.70;99.90
12971;DHT22;6550;48.650;8.774;2022-11-20T03:07:34;5.70;99.90
12971;DHT22;6550;48.650;8.774;2022-11-20T03:10:03;5.70;99.90
12971;DHT22;6550;48.650;8.774;2022-11-20T03:12:33;5.70;99.90
12971;DHT22;6550;48.650;8.774;2022-11-20T03:15:02;5.70;99.90
12971;DHT22;6550;48.650;8.774;2022-11-20T03:17:31;5.80;99.90
12971;DHT22;6550;48.650;8.774;2022-11-20T03:20:03;5.80;99.90
12971;DHT22;6550;48.650;8.774;2022-11-20T03:22:33;5.70;99.90
12971;DHT22;6550;48.650;8.774;2022-11-20T03:25:02;5.70;99.90
12971;DHT22;6550;48.650;8.774;2022-11-20T03:27:34;5.60;99.90
12971;DHT22;6550;48.650;8.774;2022-11-20T03:30:06;5.60;99.90
12971;DHT22;6550;48.650;8.774;2022-11-20T03:32:33;5.60;99.90
12971;DHT22;6550;48.650;8.774;2022-11-20T03:35:02;5.50;99.90
12971;DHT22;6550;48.650;8.774;2022-11-20T03:37:29;5.60;99.90
12971;DHT22;6550;48.650;8.774;2022-11-20T03:39:58;5.60;99.90
12971;DHT22;6550;48.650;8.774;2022-11-20T03:42:27;5.60;99.90
12971;DHT22;6550;48.650;8.774;2022-11-20T03:45:16;5.70;99.90
12971;DHT22;6550;48.650;8.774;2022-11-20T03:47:46;5.70;99.90
12971;DHT22;6550;48.650;8.774;2022-11-20T03:50:17;5.80;99.90
12971;DHT22;6550;48.650;8.774;2022-11-20T03:52:44;5.80;99.90
12971;DHT22;6550;48.650;8.774;2022-11-20T03:55:13;5.90;99.90
12971;DHT22;6550;48.650;8.774;2022-11-20T03:57:41;5.90;99.90
12971;DHT22;6550;48.650;8.774;2022-11-20T04:00:09;5.90;99.90
12971;DHT22;6550;48.650;8.774;2022-11-20T04:02:36;5.90;99.90
12971;DHT22;6550;48.650;8.774;2022-11-20T04:05:02;5.80;99.90
12971;DHT22;6550;48.650;8.774;2022-11-20T04:07:33;5.80;99.90
12971;DHT22;6550;48.650;8.774;2022-11-20T04:10:00;5.80;99.90
12971;DHT22;6550;48.650;8.774;2022-11-20T04:12:27;5.80;99.90
12971;DHT22;6550;48.650;8.774;2022-11-20T04:14:53;5.80;99.90
12971;DHT22;6550;48.650;8.774;2022-11-20T04:17:20;5.80;99.90
12971;DHT22;6550;48.650;8.774;2022-11-20T04:19:47;5.80;99.90
12971;DHT22;6550;48.650;8.774;2022-11-20T04:22:13;5.90;99.90
12971;DHT22;6550;48.650;8.774;2022-11-20T04:24:40;5.90;99.90
12971;DHT22;6550;48.650;8.774;2022-11-20T04:27:09;5.90;99.90
12971;DHT22;6550;48.650;8.774;2022-11-20T04:29:38;5.90;99.90
12971;DHT22;6550;48.650;8.774;2022-11-20T04:32:08;5.90;99.90
12971;DHT22;6550;48.650;8.774;2022-11-20T04:34:37;6.00;99.90
12971;DHT22;6550;48.650;8.774;2022-11-20T04:37:05;6.00;99.90
12971;DHT22;6550;48.650;8.774;2022-11-20T04:39:34;6.00;99.90
12971;DHT22;6550;48.650;8.774;2022-11-20T04:42:01;5.90;99.90
12971;DHT22;6550;48.650;8.774;2022-11-20T04:44:47;5.90;99.90
12971;DHT22;6550;48.650;8.774;2022-11-20T04:47:16;5.90;99.90
12971;DHT22;6550;48.650;8.774;2022-11-20T04:49:44;5.90;99.90
12971;DHT22;6550;48.650;8.774;2022-11-20T04:52:11;5.90;99.90
12971;DHT22;6550;48.650;8.774;2022-11-20T04:54:38;5.90;99.90
12971;DHT22;6550;48.650;8.774;2022-11-20T04:57:07;5.90;99.90
12971;DHT22;6550;48.650;8.774;2022-11-20T04:59:40;5.90;99.90
12971;DHT22;6550;48.650;8.774;2022-11-20T05:02:13;5.90;99.90
12971;DHT22;6550;48.650;8.774;2022-11-20T05:04:42;5.90;99.90
12971;DHT22;6550;48.650;8.774;2022-11-20T05:07:09;5.90;99.90
12971;DHT22;6550;48.650;8.774;2022-11-20T05:09:38;6.00;99.90
12971;DHT22;6550;48.650;8.774;2022-11-20T05:12:07;6.00;99.90
12971;DHT22;6550;48.650;8.774;2022-11-20T05:14:34;6.00;99.90
12971;DHT22;6550;48.650;8.774;2022-11-20T05:17:06;6.00;99.90
12971;DHT22;6550;48.650;8.774;2022-11-20T05:19:32;5.90;99.90
12971;DHT22;6550;48.650;8.774;2022-11-20T05:22:01;6.00;99.90
12971;DHT22;6550;48.650;8.774;2022-11-20T05:24:28;6.00;99.90
12971;DHT22;6550;48.650;8.774;2022-11-20T05:26:55;6.00;99.90
12971;DHT22;6550;48.650;8.774;2022-11-20T05:29:28;6.00;99.90
12971;DHT22;6550;48.650;8.774;2022-11-20T05:31:55;6.00;99.90
12971;DHT22;6550;48.650;8.774;2022-11-20T05:34:24;6.00;99.90
12971;DHT22;6550;48.650;8.774;2022-11-20T05:36:51;6.00;99.90
12971;DHT22;6550;48.650;8.774;2022-11-20T05:39:17;6.00;99.90
12971;DHT22;6550;48.650;8.774;2022-11-20T05:41:44;5.90;99.90
12971;DHT22;6550;48.650;8.774;2022-11-20T05:44:11;6.00;99.90
12971;DHT22;6550;48.650;8.774;2022-11-20T05:46:40;6.00;99.90
12971;DHT22;6550;48.650;8.774;2022-11-20T05:49:09;6.10;99.90
12971;DHT22;6550;48.650;8.774;2022-11-20T05:51:41;6.10;99.90
12971;DHT22;6550;48.650;8.774;2022-11-20T05:54:07;7.50;99.90
12971;DHT22;6550;48.650;8.774;2022-11-20T05:56:36;6.10;99.90
12971;DHT22;6550;48.650;8.774;2022-11-20T05:59:05;6.10;99.90
12971;DHT22;6550;48.650;8.774;2022-11-20T06:01:32;6.10;99.90
12971;DHT22;6550;48.650;8.774;2022-11-20T06:03:59;6.10;99.90
12971;DHT22;6550;48.650;8.774;2022-11-20T06:06:27;6.10;99.90
12971;DHT22;6550;48.650;8.774;2022-11-20T06:08:55;6.10;99.90
12971;DHT22;6550;48.650;8.774;2022-11-20T06:11:24;6.10;99.90
12971;DHT22;6550;48.650;8.774;2022-11-20T06:13:51;6.10;99.90
12971;DHT22;6550;48.650;8.774;2022-11-20T06:16:22;6.10;99.90
12971;DHT22;6550;48.650;8.774;2022-11-20T06:18:49;6.10;99.90
12971;DHT22;6550;48.650;8.774;2022-11-20T06:21:18;6.10;99.90
12971;DHT22;6550;48.650;8.774;2022-11-20T06:23:46;6.10;99.90
12971;DHT22;6550;48.650;8.774;2022-11-20T06:26:23;6.10;99.90
12971;DHT22;6550;48.650;8.774;2022-11-20T06:28:51;6.20;99.90
12971;DHT22;6550;48.650;8.774;2022-11-20T06:31:24;6.20;99.90
12971;DHT22;6550;48.650;8.774;2022-11-20T06:33:52;6.20;99.90
12971;DHT22;6550;48.650;8.774;2022-11-20T06:36:20;6.30;99.90
12971;DHT22;6550;48.650;8.774;2022-11-20T06:38:47;6.30;99.90
12971;DHT22;6550;48.650;8.774;2022-11-20T06:41:19;6.30;99.90
12971;DHT22;6550;48.650;8.774;2022-11-20T06:43:49;6.30;99.90
12971;DHT22;6550;48.650;8.774;2022-11-20T06:46:17;6.20;99.90
12971;DHT22;6550;48.650;8.774;2022-11-20T06:48:45;6.20;99.90
12971;DHT22;6550;48.650;8.774;2022-11-20T06:51:18;6.20;99.90
12971;DHT22;6550;48.650;8.774;2022-11-20T06:53:47;6.20;99.90
12971;DHT22;6550;48.650;8.774;2022-11-20T06:56:16;6.20;99.90
12971;DHT22;6550;48.650;8.774;2022-11-20T06:58:42;6.20;99.90
12971;DHT22;6550;48.650;8.774;2022-11-20T07:01:15;6.20;99.90
12971;DHT22;6550;48.650;8.774;2022-11-20T07:03:44;6.20;99.90
12971;DHT22;6550;48.650;8.774;2022-11-20T07:06:16;6.20;99.90
12971;DHT22;6550;48.650;8.774;2022-11-20T07:08:46;6.30;99.90
12971;DHT22;6550;48.650;8.774;2022-11-20T07:11:15;6.30;99.90
12971;DHT22;6550;48.650;8.774;2022-11-20T07:13:44;6.40;99.90
12971;DHT22;6550;48.650;8.774;2022-11-20T07:16:11;6.40;99.90
12971;DHT22;6550;48.650;8.774;2022-11-20T07:18:38;6.50;99.90
12971;DHT22;6550;48.650;8.774;2022-11-20T07:21:07;6.50;99.90
12971;DHT22;6550;48.650;8.774;2022-11-20T07:23:34;6.50;99.90
12971;DHT22;6550;48.650;8.774;2022-11-20T07:26:05;6.50;99.90
12971;DHT22;6550;48.650;8.774;2022-11-20T07:28:35;6.50;99.90
12971;DHT22;6550;48.650;8.774;2022-11-20T07:31:07;6.50;99.90
12971;DHT22;6550;48.650;8.774;2022-11-20T07:33:34;6.50;99.90
12971;DHT22;6550;48.650;8.774;2022-11-20T07:36:03;6.50;99.90
12971;DHT22;6550;48.650;8.774;2022-11-20T07:38:30;6.50;99.90
12971;DHT22;6550;48.650;8.774;2022-11-20T07:40:57;6.50;99.90
12971;DHT22;6550;48.650;8.774;2022-11-20T07:43:24;6.50;99.90
12971;DHT22;6550;48.650;8.774;2022-11-20T07:45:51;6.50;99.90
12971;DHT22;6550;48.650;8.774;2022-11-20T07:48:22;6.50;99.90
12971;DHT22;6550;48.650;8.774;2022-11-20T07:50:53;6.60;99.90
12971;DHT22;6550;48.650;8.774;2022-11-20T07:53:20;6.60;99.90
12971;DHT22;6550;48.650;8.774;2022-11-20T07:55:48;6.70;99.90
12971;DHT22;6550;48.650;8.774;2022-11-20T07:58:15;6.70;99.90
12971;DHT22;6550;48.650;8.774;2022-11-20T08:00:43;6.80;99.90
12971;DHT22;6550;48.650;8.774;2022-11-20T08:03:10;6.90;99.90
12971;DHT22;6550;48.650;8.774;2022-11-20T08:05:37;6.90;99.90
12971;DHT22;6550;48.650;8.774;2022-11-20T08:08:04;6.90;99.90
12971;DHT22;6550;48.650;8.774;2022-11-20T08:10:30;7.00;99.90
12971;DHT22;6550;48.650;8.774;2022-11-20T08:12:57;7.00;99.90
12971;DHT22;6550;48.650;8.774;2022-11-20T08:15:48;10.40;99.90
12971;DHT22;6550;48.650;8.774;2022-11-20T08:18:17;10.60;99.90
12971;DHT22;6550;48.650;8.774;2022-11-20T08:21:04;9.80;99.90
12971;DHT22;6550;48.650;8.774;2022-11-20T08:23:34;9.00;99.90
12971;DHT22;6550;48.650;8.774;2022-11-20T08:26:00;8.70;99.90
12971;DHT22;6550;48.650;8.774;2022-11-20T08:28:30;8.50;99.90
12971;DHT22;6550;48.650;8.774;2022-11-20T08:31:00;8.40;99.90
12971;DHT22;6550;48.650;8.774;2022-11-20T08:33:28;8.50;99.90
12971;DHT22;6550;48.650;8.774;2022-11-20T08:36:02;8.50;99.90
12971;DHT22;6550;48.650;8.774;2022-11-20T08:38:29;8.50;99.90
12971;DHT22;6550;48.650;8.774;2022-11-20T08:41:01;8.50;99.90
12971;DHT22;6550;48.650;8.774;2022-11-20T08:43:48;8.50;99.90
12971;DHT22;6550;48.650;8.774;2022-11-20T08:46:15;8.50;99.90
12971;DHT22;6550;48.650;8.774;2022-11-20T08:48:44;8.50;99.90
12971;DHT22;6550;48.650;8.774;2022-11-20T08:51:12;8.40;99.90
12971;DHT22;6550;48.650;8.774;2022-11-20T08:53:41;8.40;99.90
12971;DHT22;6550;48.650;8.774;2022-11-20T08:56:11;8.40;99.90
12971;DHT22;6550;48.650;8.774;2022-11-20T08:58:39;8.40;99.90
12971;DHT22;6550;48.650;8.774;2022-11-20T09:01:26;8.40;99.90
12971;DHT22;6550;48.650;8.774;2022-11-20T09:03:55;8.40;99.90
12971;DHT22;6550;48.650;8.774;2022-11-20T09:06:23;8.40;99.90
12971;DHT22;6550;48.650;8.774;2022-11-20T09:08:52;8.40;99.90
12971;DHT22;6550;48.650;8.774;2022-11-20T09:11:19;8.40;99.90
12971;DHT22;6550;48.650;8.774;2022-11-20T09:13:49;8.40;99.90
12971;DHT22;6550;48.650;8.774;2022-11-20T09:16:15;8.30;99.90
12971;DHT22;6550;48.650;8.774;2022-11-20T09:18:42;8.30;99.90
12971;DHT22;6550;48.650;8.774;2022-11-20T09:21:10;8.30;99.90
12971;DHT22;6550;48.650;8.774;2022-11-20T09:23:43;9.80;99.90
12971;DHT22;6550;48.650;8.774;2022-11-20T09:26:17;8.40;99.90
12971;DHT22;6550;48.650;8.774;2022-11-20T09:28:46;8.50;99.90
12971;DHT22;6550;48.650;8.774;2022-11-20T09:31:31;8.50;99.90
12971;DHT22;6550;48.650;8.774;2022-11-20T09:33:57;8.40;99.90
12971;DHT22;6550;48.650;8.774;2022-11-20T09:36:24;8.40;99.90
12971;DHT22;6550;48.650;8.774;2022-11-20T09:38:51;8.40;99.90
12971;DHT22;6550;48.650;8.774;2022-11-20T09:41:32;8.40;99.90
12971;DHT22;6550;48.650;8.774;2022-11-20T09:47:12;8.50;99.90
12971;DHT22;6550;48.650;8.774;2022-11-20T09:54:52;8.50;99.90
12971;DHT22;6550;48.650;8.774;2022-11-20T09:57:23;8.60;99.90
12971;DHT22;6550;48.650;8.774;2022-11-20T10:00:03;8.60;99.90
12971;DHT22;6550;48.650;8.774;2022-11-20T10:02:39;8.60;99.90
12971;DHT22;6550;48.650;8.774;2022-11-20T10:19:00;9.00;99.90
12971;DHT22;6550;48.650;8.774;2022-11-20T10:21:39;9.00;99.90
12971;DHT22;6550;48.650;8.774;2022-11-20T10:30:22;9.20;99.90
12971;DHT22;6550;48.650;8.774;2022-11-20T10:33:06;9.20;99.90
12971;DHT22;6550;48.650;8.774;2022-11-20T10:35:45;9.30;99.90
12971;DHT22;6550;48.650;8.774;2022-11-20T10:38:23;9.40;99.90
12971;DHT22;6550;48.650;8.774;2022-11-20T10:40:54;10.70;99.90
12971;DHT22;6550;48.650;8.774;2022-11-20T10:43:43;9.60;99.90
12971;DHT22;6550;48.650;8.774;2022-11-20T10:46:16;9.60;99.90
12971;DHT22;6550;48.650;8.774;2022-11-20T10:48:46;9.60;99.90
12971;DHT22;6550;48.650;8.774;2022-11-20T10:56:42;9.50;99.90
12971;DHT22;6550;48.650;8.774;2022-11-20T11:01:57;9.60;99.90
12971;DHT22;6550;48.650;8.774;2022-11-20T11:07:17;9.40;99.90
12971;DHT22;6550;48.650;8.774;2022-11-20T11:09:52;9.50;99.90
12971;DHT22;6550;48.650;8.774;2022-11-20T11:12:20;9.60;99.90
12971;DHT22;6550;48.650;8.774;2022-11-20T11:14:52;9.60;99.90
12971;DHT22;6550;48.650;8.774;2022-11-20T11:17:33;9.60;99.90
12971;DHT22;6550;48.650;8.774;2022-11-20T11:20:22;9.70;99.90
12971;DHT22;6550;48.650;8.774;2022-11-20T11:22:57;9.70;99.90
12971;DHT22;6550;48.650;8.774;2022-11-20T11:27:55;9.70;99.90
12971;DHT22;6550;48.650;8.774;2022-11-20T11:30:27;9.50;99.90
12971;DHT22;6550;48.650;8.774;2022-11-20T11:33:26;9.40;99.90
12971;DHT22;6550;48.650;8.774;2022-11-20T11:35:54;9.30;99.90
12971;DHT22;6550;48.650;8.774;2022-11-20T11:38:39;9.30;99.90
12971;DHT22;6550;48.650;8.774;2022-11-20T11:41:12;9.30;99.90
12971;DHT22;6550;48.650;8.774;2022-11-20T11:43:56;9.20;99.90
12971;DHT22;6550;48.650;8.774;2022-11-20T11:46:53;9.30;99.90
12971;DHT22;6550;48.650;8.774;2022-11-20T11:49:21;9.40;99.90
12971;DHT22;6550;48.650;8.774;2022-11-20T11:52:18;9.50;99.90
12971;DHT22;6550;48.650;8.774;2022-11-20T11:54:58;9.50;99.90
12971;DHT22;6550;48.650;8.774;2022-11-20T11:57:41;9.50;99.90
12971;DHT22;6550;48.650;8.774;2022-11-20T12:00:13;9.50;99.90
12971;DHT22;6550;48.650;8.774;2022-11-20T12:08:03;9.70;99.90
12971;DHT22;6550;48.650;8.774;2022-11-20T12:10:44;9.80;99.90
12971;DHT22;6550;48.650;8.774;2022-11-20T12:16:00;9.90;99.90
12971;DHT22;6550;48.650;8.774;2022-11-20T12:18:30;9.90;99.90
12971;DHT22;6550;48.650;8.774;2022-11-20T12:43:19;10.30;99.90
12971;DHT22;6550;48.650;8.774;2022-11-20T12:46:30;10.60;99.90
12971;DHT22;6550;48.650;8.774;2022-11-20T12:49:45;10.80;99.90
12971;DHT22;6550;48.650;8.774;2022-11-20T12:52:38;10.80;99.90
12971;DHT22;6550;48.650;8.774;2022-11-20T12:55:25;10.80;99.90
12971;DHT22;6550;48.650;8.774;2022-11-20T13:00:26;10.70;99.90
12971;DHT22;6550;48.650;8.774;2022-11-20T13:06:10;10.60;99.90
12971;DHT22;6550;48.650;8.774;2022-11-20T13:08:53;10.50;99.90
12971;DHT22;6550;48.650;8.774;2022-11-20T13:11:43;10.90;99.90
12971;DHT22;6550;48.650;8.774;2022-11-20T13:17:16;10.60;99.90
12971;DHT22;6550;48.650;8.774;2022-11-20T13:19:55;10.50;99.90
12971;DHT22;6550;48.650;8.774;2022-11-20T13:22:42;11.70;99.90
12971;DHT22;6550;48.650;8.774;2022-11-20T13:25:38;10.40;99.90
12971;DHT22;6550;48.650;8.774;2022-11-20T13:28:28;10.30;99.90
12971;DHT22;6550;48.650;8.774;2022-11-20T13:30:58;10.30;99.90
12971;DHT22;6550;48.650;8.774;2022-11-20T13:33:32;10.20;99.90
12971;DHT22;6550;48.650;8.774;2022-11-20T13:36:04;10.10;99.90
12971;DHT22;6550;48.650;8.774;2022-11-20T13:38:44;10.10;99.90
12971;DHT22;6550;48.650;8.774;2022-11-20T13:41:11;10.10;99.90
12971;DHT22;6550;48.650;8.774;2022-11-20T13:46:43;10.00;99.90
12971;DHT22;6550;48.650;8.774;2022-11-20T13:51:51;10.00;99.90
12971;DHT22;6550;48.650;8.774;2022-11-20T14:00:09;9.90;99.90
12971;DHT22;6550;48.650;8.774;2022-11-20T14:02:38;9.90;99.90
12971;DHT22;6550;48.650;8.774;2022-11-20T14:05:05;9.90;99.90
12971;DHT22;6550;48.650;8.774;2022-11-20T14:07:39;9.80;99.90
12971;DHT22;6550;48.650;8.774;2022-11-20T14:10:20;9.80;99.90
12971;DHT22;6550;48.650;8.774;2022-11-20T14:12:50;9.80;99.90
12971;DHT22;6550;48.650;8.774;2022-11-20T14:15:33;9.70;99.90
12971;DHT22;6550;48.650;8.774;2022-11-20T14:18:15;9.80;99.90
12971;DHT22;6550;48.650;8.774;2022-11-20T14:20:45;9.80;99.90
12971;DHT22;6550;48.650;8.774;2022-11-20T14:23:12;9.70;99.90
12971;DHT22;6550;48.650;8.774;2022-11-20T14:25:55;9.80;99.90
12971;DHT22;6550;48.650;8.774;2022-11-20T14:28:29;9.70;99.90
12971;DHT22;6550;48.650;8.774;2022-11-20T14:30:57;9.70;99.90
12971;DHT22;6550;48.650;8.774;2022-11-20T14:33:25;9.70;99.90
12971;DHT22;6550;48.650;8.774;2022-11-20T14:35:56;9.70;99.90
12971;DHT22;6550;48.650;8.774;2022-11-20T14:38:31;9.70;99.90
12971;DHT22;6550;48.650;8.774;2022-11-20T14:41:18;9.70;99.90
12971;DHT22;6550;48.650;8.774;2022-11-20T14:43:47;9.70;99.90
12971;DHT22;6550;48.650;8.774;2022-11-20T14:46:14;9.60;99.90
12971;DHT22;6550;48.650;8.774;2022-11-20T14:48:44;10.70;99.90
12971;DHT22;6550;48.650;8.774;2022-11-20T14:51:33;9.60;99.90
12971;DHT22;6550;48.650;8.774;2022-11-20T14:54:20;9.60;99.90
12971;DHT22;6550;48.650;8.774;2022-11-20T14:57:00;9.60;99.90
12971;DHT22;6550;48.650;8.774;2022-11-20T14:59:29;9.60;99.90
12971;DHT22;6550;48.650;8.774;2022-11-20T15:02:05;9.50;99.90
12971;DHT22;6550;48.650;8.774;2022-11-20T15:04:48;9.50;99.90
12971;DHT22;6550;48.650;8.774;2022-11-20T15:07:30;9.40;99.90
12971;DHT22;6550;48.650;8.774;2022-11-20T15:10:21;9.30;99.90
12971;DHT22;6550;48.650;8.774;2022-11-20T15:12:53;9.30;99.90
12971;DHT22;6550;48.650;8.774;2022-11-20T15:17:54;9.20;99.90
12971;DHT22;6550;48.650;8.774;2022-11-20T15:20:29;9.10;99.90
12971;DHT22;6550;48.650;8.774;2022-11-20T15:22:56;9.00;99.90
12971;DHT22;6550;48.650;8.774;2022-11-20T15:25:23;9.00;99.90
12971;DHT22;6550;48.650;8.774;2022-11-20T15:28:00;9.00;99.90
12971;DHT22;6550;48.650;8.774;2022-11-20T15:30:26;8.90;99.90
12971;DHT22;6550;48.650;8.774;2022-11-20T15:32:55;8.90;99.90
12971;DHT22;6550;48.650;8.774;2022-11-20T15:35:22;8.80;99.90
12971;DHT22;6550;48.650;8.774;2022-11-20T15:37:49;8.80;99.90
12971;DHT22;6550;48.650;8.774;2022-11-20T15:40:15;8.70;99.90
12971;DHT22;6550;48.650;8.774;2022-11-20T15:42:42;8.70;99.90
12971;DHT22;6550;48.650;8.774;2022-11-20T15:48:19;8.60;99.90
12971;DHT22;6550;48.650;8.774;2022-11-20T15:53:41;8.60;99.90
12971;DHT22;6550;48.650;8.774;2022-11-20T15:56:14;8.60;99.90
12971;DHT22;6550;48.650;8.774;2022-11-20T15:58:43;8.50;99.90
12971;DHT22;6550;48.650;8.774;2022-11-20T16:01:11;8.50;99.90
12971;DHT22;6550;48.650;8.774;2022-11-20T16:03:41;8.50;99.90
12971;DHT22;6550;48.650;8.774;2022-11-20T16:06:08;8.50;99.90
12971;DHT22;6550;48.650;8.774;2022-11-20T16:08:35;8.40;99.90
12971;DHT22;6550;48.650;8.774;2022-11-20T16:11:03;8.50;99.90
12971;DHT22;6550;48.650;8.774;2022-11-20T16:13:31;9.00;99.90
12971;DHT22;6550;48.650;8.774;2022-11-20T16:16:28;8.50;99.90
12971;DHT22;6550;48.650;8.774;2022-11-20T16:18:59;8.40;99.90
12971;DHT22;6550;48.650;8.774;2022-11-20T16:21:27;8.40;99.90
12971;DHT22;6550;48.650;8.774;2022-11-20T16:24:00;8.30;99.90
12971;DHT22;6550;48.650;8.774;2022-11-20T16:26:30;8.30;99.90
12971;DHT22;6550;48.650;8.774;2022-11-20T16:28:58;8.30;99.90
12971;DHT22;6550;48.650;8.774;2022-11-20T16:31:28;8.30;99.90
12971;DHT22;6550;48.650;8.774;2022-11-20T16:33:56;8.20;99.90
12971;DHT22;6550;48.650;8.774;2022-11-20T16:36:24;8.30;99.90
12971;DHT22;6550;48.650;8.774;2022-11-20T16:38:53;8.30;99.90
12971;DHT22;6550;48.650;8.774;2022-11-20T16:41:22;8.30;99.90
12971;DHT22;6550;48.650;8.774;2022-11-20T16:43:51;8.40;99.90
12971;DHT22;6550;48.650;8.774;2022-11-20T16:46:20;8.20;99.90
12971;DHT22;6550;48.650;8.774;2022-11-20T16:48:59;8.30;99.90
12971;DHT22;6550;48.650;8.774;2022-11-20T16:51:29;8.30;99.90
12971;DHT22;6550;48.650;8.774;2022-11-20T16:53:59;8.20;99.90
12971;DHT22;6550;48.650;8.774;2022-11-20T16:56:29;8.30;99.90
12971;DHT22;6550;48.650;8.774;2022-11-20T16:58:57;8.20;99.90
12971;DHT22;6550;48.650;8.774;2022-11-20T17:01:25;8.10;99.90
12971;DHT22;6550;48.650;8.774;2022-11-20T17:03:59;8.20;99.90
12971;DHT22;6550;48.650;8.774;2022-11-20T17:06:29;8.20;99.90
12971;DHT22;6550;48.650;8.774;2022-11-20T17:08:56;8.20;99.90
12971;DHT22;6550;48.650;8.774;2022-11-20T17:11:23;8.10;99.90
12971;DHT22;6550;48.650;8.774;2022-11-20T17:13:50;8.20;99.90
12971;DHT22;6550;48.650;8.774;2022-11-20T17:16:20;8.20;99.90
12971;DHT22;6550;48.650;8.774;2022-11-20T17:18:49;8.20;99.90
12971;DHT22;6550;48.650;8.774;2022-11-20T17:21:17;8.20;99.90
12971;DHT22;6550;48.650;8.774;2022-11-20T17:23:47;8.20;99.90
12971;DHT22;6550;48.650;8.774;2022-11-20T17:26:23;8.20;99.90
12971;DHT22;6550;48.650;8.774;2022-11-20T17:28:59;8.10;99.90
12971;DHT22;6550;48.650;8.774;2022-11-20T17:31:28;8.10;99.90
12971;DHT22;6550;48.650;8.774;2022-11-20T17:33:56;8.10;99.90
12971;DHT22;6550;48.650;8.774;2022-11-20T17:36:25;8.10;99.90
12971;DHT22;6550;48.650;8.774;2022-11-20T17:38:52;8.10;99.90
12971;DHT22;6550;48.650;8.774;2022-11-20T17:41:23;9.50;99.90
12971;DHT22;6550;48.650;8.774;2022-11-20T17:43:58;8.00;99.90
12971;DHT22;6550;48.650;8.774;2022-11-20T17:46:27;8.10;99.90
12971;DHT22;6550;48.650;8.774;2022-11-20T17:48:55;8.10;99.90
12971;DHT22;6550;48.650;8.774;2022-11-20T17:51:29;10.00;99.90
12971;DHT22;6550;48.650;8.774;2022-11-20T17:54:00;8.20;99.90
12971;DHT22;6550;48.650;8.774;2022-11-20T17:56:34;8.20;99.90
12971;DHT22;6550;48.650;8.774;2022-11-20T17:59:24;8.20;99.90
12971;DHT22;6550;48.650;8.774;2022-11-20T18:01:56;8.20;99.90
12971;DHT22;6550;48.650;8.774;2022-11-20T18:04:29;8.10;99.90
12971;DHT22;6550;48.650;8.774;2022-11-20T18:06:55;8.10;99.90
12971;DHT22;6550;48.650;8.774;2022-11-20T18:09:22;8.10;99.90
12971;DHT22;6550;48.650;8.774;2022-11-20T18:11:49;8.10;99.90
12971;DHT22;6550;48.650;8.774;2022-11-20T18:14:16;8.10;99.90